createdAt,value
2023-03-29T00:02:03.342Z,44.84
2023-03-29T00:04:29.986Z,44.93
2023-03-29T00:06:58.582Z,44.93
2023-03-29T00:09:26.823Z,44.76
2023-03-29T00:11:53.629Z,44.79
2023-03-29T00:14:20.179Z,44.50
2023-03-29T00:16:47.911Z,44.82
2023-03-29T00:19:14.566Z,44.86
2023-03-29T00:21:41.230Z,44.86
2023-03-29T00:24:08.046Z,44.76
2023-03-29T00:26:34.499Z,44.69
2023-03-29T00:29:01.354Z,44.70
2023-03-29T00:31:28.697Z,44.74
2023-03-29T00:33:55.508Z,44.76
2023-03-29T00:36:23.350Z,44.94
2023-03-29T00:38:50.788Z,44.66
2023-03-29T00:41:17.829Z,44.71
2023-03-29T00:44:00.107Z,44.68
2023-03-29T00:46:28.140Z,44.84
2023-03-29T00:48:58.842Z,44.76
2023-03-29T00:51:31.053Z,44.69
2023-03-29T00:54:01.844Z,44.65
2023-03-29T00:56:34.959Z,44.71
2023-03-29T00:59:08.217Z,44.78
2023-03-29T01:01:50.520Z,44.66
2023-03-29T01:04:36.388Z,44.66
2023-03-29T01:07:34.363Z,44.60
2023-03-29T01:10:19.758Z,44.42
2023-03-29T01:12:51.919Z,44.59
2023-03-29T01:15:22.334Z,44.68
2023-03-29T01:17:53.845Z,44.84
2023-03-29T01:20:30.921Z,44.56
2023-03-29T01:23:14.168Z,44.54
2023-03-29T01:25:59.588Z,44.47
2023-03-29T01:28:39.954Z,44.64
2023-03-29T01:31:17.618Z,44.65
2023-03-29T01:33:49.346Z,44.43
2023-03-29T01:36:37.244Z,44.48
2023-03-29T01:39:07.992Z,44.60
2023-03-29T01:41:56.020Z,44.68
2023-03-29T01:44:44.631Z,44.50
2023-03-29T01:47:23.381Z,44.67
2023-03-29T01:50:01.077Z,44.56
2023-03-29T01:52:35.088Z,44.51
2023-03-29T01:55:12.852Z,44.48
2023-03-29T01:57:43.598Z,44.30
2023-03-29T02:00:15.554Z,44.51
2023-03-29T02:02:44.958Z,44.57
2023-03-29T02:05:15.177Z,44.32
2023-03-29T02:07:45.461Z,44.52
2023-03-29T02:10:13.820Z,44.67
2023-03-29T02:12:41.211Z,44.47
2023-03-29T02:15:13.788Z,44.77
2023-03-29T02:17:40.629Z,44.36
2023-03-29T02:20:33.035Z,44.61
2023-03-29T02:23:36.609Z,44.62
2023-03-29T02:26:03.879Z,44.56
2023-03-29T02:28:31.964Z,44.59
2023-03-29T02:31:25.320Z,44.67
2023-03-29T02:34:00.413Z,44.71
2023-03-29T02:36:34.460Z,44.52
2023-03-29T02:39:05.758Z,44.65
2023-03-29T02:41:34.033Z,44.60
2023-03-29T02:44:02.306Z,44.66
2023-03-29T02:46:28.779Z,44.61
2023-03-29T02:48:57.569Z,44.68
2023-03-29T02:51:28.788Z,44.78
2023-03-29T02:54:00.258Z,44.49
2023-03-29T02:56:26.736Z,44.60
2023-03-29T02:58:53.262Z,44.74
2023-03-29T03:01:20.792Z,44.70
2023-03-29T03:03:48.072Z,44.71
2023-03-29T03:06:15.318Z,44.63
2023-03-29T03:08:42.163Z,44.80
2023-03-29T03:11:08.657Z,44.80
2023-03-29T03:13:35.137Z,44.67
2023-03-29T03:16:05.531Z,44.95
2023-03-29T03:18:32.654Z,45.04
2023-03-29T03:21:01.853Z,44.82
2023-03-29T03:23:29.749Z,44.83
2023-03-29T03:25:56.694Z,44.84
2023-03-29T03:28:24.460Z,44.65
2023-03-29T03:30:51.033Z,44.75
2023-03-29T03:33:18.867Z,44.97
2023-03-29T03:35:46.483Z,45.03
2023-03-29T03:38:13.116Z,44.77
2023-03-29T03:40:39.984Z,44.91
2023-03-29T03:43:06.955Z,45.24
2023-03-29T03:45:34.727Z,44.84
2023-03-29T03:48:01.385Z,44.88
2023-03-29T03:50:28.247Z,44.78
2023-03-29T03:52:54.848Z,44.87
2023-03-29T03:55:22.104Z,44.91
2023-03-29T03:57:48.621Z,45.17
2023-03-29T04:00:21.401Z,44.87
2023-03-29T04:02:48.581Z,45.15
2023-03-29T04:05:17.184Z,45.05
2023-03-29T04:07:43.780Z,45.21
2023-03-29T04:10:11.189Z,44.94
2023-03-29T04:12:38.406Z,45.14
2023-03-29T04:15:06.538Z,45.22
2023-03-29T04:17:33.035Z,45.04
2023-03-29T04:20:02.210Z,45.12
2023-03-29T04:22:28.979Z,45.33
2023-03-29T04:24:55.686Z,45.03
2023-03-29T04:27:22.330Z,45.17
2023-03-29T04:29:48.950Z,45.16
2023-03-29T04:32:15.561Z,45.23
2023-03-29T04:34:42.083Z,45.24
2023-03-29T04:37:10.718Z,45.32
2023-03-29T04:39:37.927Z,45.43
2023-03-29T04:42:05.832Z,45.55
2023-03-29T04:44:36.916Z,45.44
2023-03-29T04:47:03.454Z,45.82
2023-03-29T04:49:29.961Z,45.78
2023-03-29T04:51:57.238Z,45.81
2023-03-29T04:54:24.719Z,45.54
2023-03-29T04:56:52.776Z,45.50
2023-03-29T04:59:19.631Z,45.55
2023-03-29T05:01:53.877Z,45.39
2023-03-29T05:04:20.806Z,45.43
2023-03-29T05:06:47.512Z,45.34
2023-03-29T05:09:14.041Z,45.22
2023-03-29T05:11:41.210Z,45.01
2023-03-29T05:14:09.446Z,44.91
2023-03-29T05:16:38.122Z,44.72
2023-03-29T05:21:46.280Z,44.09
2023-03-29T05:24:12.758Z,43.73
2023-03-29T05:26:40.068Z,43.63
2023-03-29T05:29:08.992Z,43.15
2023-03-29T05:31:37.896Z,42.95
2023-03-29T05:34:06.333Z,42.66
2023-03-29T05:36:33.388Z,42.44
2023-03-29T05:38:59.965Z,42.22
2023-03-29T05:41:26.536Z,41.83
2023-03-29T05:43:53.040Z,41.62
2023-03-29T05:46:19.863Z,41.54
2023-03-29T05:48:46.584Z,41.35
2023-03-29T05:51:13.361Z,41.23
2023-03-29T05:53:40.007Z,41.01
2023-03-29T05:56:08.732Z,40.61
2023-03-29T05:58:36.573Z,40.75
2023-03-29T06:01:04.613Z,40.49
2023-03-29T06:03:31.517Z,40.59
2023-03-29T06:06:02.653Z,40.07
2023-03-29T06:08:30.019Z,40.06
2023-03-29T06:11:04.601Z,39.79
2023-03-29T06:13:34.104Z,39.73
2023-03-29T06:16:01.602Z,39.52
2023-03-29T06:18:30.337Z,39.58
2023-03-29T06:20:56.881Z,39.32
2023-03-29T06:23:23.710Z,39.31
2023-03-29T06:25:51.567Z,39.13
2023-03-29T06:28:19.269Z,38.95
2023-03-29T06:30:46.316Z,38.86
2023-03-29T06:33:14.462Z,38.56
2023-03-29T06:35:47.803Z,38.65
2023-03-29T06:38:16.021Z,38.94
2023-03-29T06:40:51.722Z,38.79
2023-03-29T06:43:18.775Z,38.68
2023-03-29T06:45:45.632Z,38.63
2023-03-29T06:48:12.770Z,38.73
2023-03-29T06:50:39.405Z,38.48
2023-03-29T06:53:05.886Z,38.57
2023-03-29T06:55:32.833Z,38.64
2023-03-29T06:58:03.274Z,38.79
2023-03-29T07:00:30.598Z,38.71
2023-03-29T07:02:59.421Z,38.79
2023-03-29T07:05:27.445Z,38.82
2023-03-29T07:07:56.375Z,38.92
2023-03-29T07:10:28.169Z,38.67
2023-03-29T07:12:55.156Z,38.99
2023-03-29T07:15:22.309Z,38.92
2023-03-29T07:17:49.462Z,39.16
2023-03-29T07:20:16.738Z,39.13
2023-03-29T07:22:44.741Z,39.12
2023-03-29T07:25:12.272Z,39.39
2023-03-29T07:27:40.998Z,39.46
2023-03-29T07:30:11.347Z,39.12
2023-03-29T07:32:39.722Z,39.43
2023-03-29T07:35:08.463Z,39.35
2023-03-29T07:37:37.619Z,39.50
2023-03-29T07:40:09.729Z,39.52
2023-03-29T07:42:39.214Z,39.70
2023-03-29T07:45:08.485Z,39.71
2023-03-29T07:47:35.293Z,39.88
2023-03-29T07:50:02.896Z,40.07
2023-03-29T07:52:30.941Z,40.19
2023-03-29T07:54:57.588Z,40.10
2023-03-29T07:57:25.667Z,40.24
2023-03-29T07:59:52.579Z,40.16
2023-03-29T08:02:19.604Z,40.06
2023-03-29T08:04:47.886Z,40.38
2023-03-29T08:07:18.810Z,40.63
2023-03-29T08:09:45.730Z,41.55
2023-03-29T08:12:12.784Z,42.01
2023-03-29T08:14:39.388Z,42.55
2023-03-29T08:17:05.868Z,42.93
2023-03-29T08:19:32.727Z,43.40
2023-03-29T08:22:01.514Z,43.57
2023-03-29T08:24:28.292Z,43.68
2023-03-29T08:26:55.156Z,43.96
2023-03-29T08:29:22.418Z,44.27
2023-03-29T08:31:53.230Z,44.55
2023-03-29T08:34:19.894Z,44.78
2023-03-29T08:36:47.137Z,45.18
2023-03-29T08:39:13.716Z,44.63
2023-03-29T08:42:18.180Z,44.56
2023-03-29T08:44:53.623Z,44.64
2023-03-29T08:47:29.817Z,45.02
2023-03-29T08:49:57.984Z,45.30
2023-03-29T08:52:38.098Z,45.14
2023-03-29T08:55:17.926Z,45.29
2023-03-29T08:57:48.693Z,45.07
2023-03-29T09:00:24.211Z,45.39
2023-03-29T09:02:54.137Z,45.50
2023-03-29T09:05:24.224Z,45.38
2023-03-29T09:07:50.810Z,45.49
2023-03-29T09:10:19.901Z,45.50
2023-03-29T09:13:01.281Z,45.42
2023-03-29T09:15:37.307Z,45.79
2023-03-29T09:18:15.659Z,45.83
2023-03-29T09:20:48.087Z,45.97
2023-03-29T09:23:44.544Z,45.99
2023-03-29T09:26:31.259Z,46.06
2023-03-29T09:29:13.284Z,45.97
2023-03-29T09:31:45.729Z,47.40
2023-03-29T09:34:37.799Z,47.15
2023-03-29T09:37:15.830Z,47.04
2023-03-29T09:39:42.521Z,46.77
2023-03-29T09:42:12.884Z,46.81
2023-03-29T09:44:47.672Z,46.95
2023-03-29T09:47:36.137Z,46.88
2023-03-29T09:50:23.059Z,46.88
2023-03-29T09:52:54.422Z,47.27
2023-03-29T09:55:25.633Z,47.05
2023-03-29T09:57:52.704Z,47.24
2023-03-29T10:00:19.629Z,47.41
2023-03-29T10:02:57.931Z,46.92
2023-03-29T10:05:27.020Z,47.47
2023-03-29T10:07:57.662Z,47.56
2023-03-29T10:10:30.685Z,47.45
2023-03-29T10:13:01.018Z,47.41
2023-03-29T10:15:30.240Z,47.33
2023-03-29T10:18:05.309Z,47.65
2023-03-29T10:20:35.523Z,47.60
2023-03-29T10:23:02.264Z,47.70
2023-03-29T10:25:34.424Z,47.43
2023-03-29T10:28:08.211Z,47.29
2023-03-29T10:30:37.424Z,46.89
2023-03-29T10:33:05.178Z,47.03
2023-03-29T10:35:44.197Z,47.08
2023-03-29T10:38:15.001Z,46.91
2023-03-29T10:40:45.394Z,47.20
2023-03-29T10:43:20.271Z,47.32
2023-03-29T10:46:13.383Z,47.42
2023-03-29T10:48:46.211Z,47.94
2023-03-29T10:51:14.636Z,47.56
2023-03-29T10:53:41.931Z,47.61
2023-03-29T10:56:08.327Z,47.47
2023-03-29T10:59:06.025Z,47.64
2023-03-29T11:01:51.330Z,47.55
2023-03-29T11:04:36.387Z,47.50
2023-03-29T11:07:24.779Z,47.74
2023-03-29T11:10:06.485Z,47.76
2023-03-29T11:13:08.615Z,47.94
2023-03-29T11:16:07.578Z,48.47
2023-03-29T11:18:46.335Z,48.91
2023-03-29T11:21:30.300Z,49.12
2023-03-29T11:24:14.952Z,49.83
2023-03-29T11:27:12.460Z,50.08
2023-03-29T11:29:53.391Z,49.89
2023-03-29T11:32:34.440Z,49.96
2023-03-29T11:35:09.993Z,50.21
2023-03-29T11:37:49.851Z,50.16
2023-03-29T11:40:29.393Z,50.17
2023-03-29T11:43:00.530Z,50.48
2023-03-29T11:45:36.799Z,50.86
2023-03-29T11:48:06.386Z,51.00
2023-03-29T11:50:53.129Z,50.76
2023-03-29T11:53:31.536Z,50.83
2023-03-29T11:56:11.881Z,51.03
2023-03-29T11:58:40.823Z,50.05
2023-03-29T12:01:12.927Z,50.79
2023-03-29T12:03:49.897Z,50.87
2023-03-29T12:07:09.038Z,51.05
2023-03-29T12:09:47.166Z,51.49
2023-03-29T12:12:22.385Z,51.74
2023-03-29T12:15:01.372Z,51.63
2023-03-29T12:17:33.044Z,51.90
2023-03-29T12:20:05.310Z,51.54
2023-03-29T12:22:32.827Z,52.19
2023-03-29T12:25:00.645Z,51.90
2023-03-29T12:27:33.357Z,52.00
2023-03-29T12:30:27.995Z,51.81
2023-03-29T12:33:00.917Z,52.11
2023-03-29T12:35:53.209Z,51.96
2023-03-29T12:38:29.395Z,52.07
2023-03-29T12:41:05.292Z,52.13
2023-03-29T12:43:43.773Z,51.94
2023-03-29T12:46:15.104Z,52.21
2023-03-29T12:48:44.451Z,52.37
2023-03-29T12:51:17.164Z,52.41
2023-03-29T12:53:45.773Z,52.55
2023-03-29T12:56:23.603Z,52.47
2023-03-29T12:59:06.977Z,52.80
2023-03-29T13:01:38.694Z,52.62
2023-03-29T13:04:21.796Z,52.45
2023-03-29T13:06:53.748Z,52.78
2023-03-29T13:09:30.158Z,52.53
2023-03-29T13:12:17.117Z,52.81
2023-03-29T13:14:49.911Z,52.54
2023-03-29T13:17:47.815Z,52.32
2023-03-29T13:20:24.713Z,52.40
2023-03-29T13:22:56.774Z,52.29
2023-03-29T13:25:52.982Z,52.18
2023-03-29T13:28:41.706Z,52.19
2023-03-29T13:31:27.279Z,52.41
2023-03-29T13:34:03.504Z,52.63
2023-03-29T13:36:45.826Z,52.51
2023-03-29T13:39:28.366Z,52.33
2023-03-29T13:42:26.981Z,52.46
2023-03-29T13:45:16.285Z,52.46
2023-03-29T13:47:58.704Z,52.88
2023-03-29T13:50:38.157Z,52.90
2023-03-29T13:53:20.894Z,52.90
2023-03-29T13:55:52.217Z,53.09
2023-03-29T13:58:32.915Z,53.13
2023-03-29T14:01:14.957Z,53.44
2023-03-29T14:03:46.829Z,53.49
2023-03-29T14:06:18.261Z,53.62
2023-03-29T14:08:45.930Z,53.68
2023-03-29T14:11:25.300Z,53.36
2023-03-29T14:13:54.774Z,53.75
2023-03-29T14:16:22.323Z,53.80
2023-03-29T14:18:51.524Z,53.94
2023-03-29T14:21:20.343Z,53.95
2023-03-29T14:23:54.078Z,53.97
2023-03-29T14:26:22.946Z,53.63
2023-03-29T14:28:58.418Z,53.35
2023-03-29T14:31:29.812Z,53.81
2023-03-29T14:34:01.706Z,53.64
2023-03-29T14:36:30.468Z,53.75
2023-03-29T14:39:01.991Z,53.66
2023-03-29T14:41:37.067Z,53.70
2023-03-29T14:44:06.640Z,53.65
2023-03-29T14:46:34.318Z,53.82
2023-03-29T14:49:02.680Z,53.68
2023-03-29T14:51:31.992Z,53.46
2023-03-29T14:54:02.891Z,53.42
2023-03-29T14:56:32.993Z,53.10
2023-03-29T14:59:04.778Z,53.08
2023-03-29T15:01:31.909Z,52.95
2023-03-29T15:04:11.818Z,53.12
2023-03-29T15:06:40.978Z,52.99
2023-03-29T15:09:20.421Z,53.19
2023-03-29T15:11:56.185Z,53.37
2023-03-29T15:14:25.023Z,53.12
2023-03-29T15:16:53.933Z,53.15
2023-03-29T15:19:22.084Z,53.17
2023-03-29T15:21:51.351Z,52.99
2023-03-29T15:24:22.391Z,52.99
2023-03-29T15:27:01.393Z,53.01
2023-03-29T15:29:46.430Z,53.34
2023-03-29T15:32:24.986Z,53.15
2023-03-29T15:34:59.382Z,53.04
2023-03-29T15:37:27.442Z,53.23
2023-03-29T15:39:55.729Z,52.79
2023-03-29T15:42:22.636Z,53.66
2023-03-29T15:44:49.248Z,53.92
2023-03-29T15:47:15.805Z,54.04
2023-03-29T15:49:42.348Z,54.23
2023-03-29T15:52:08.948Z,54.17
2023-03-29T15:54:37.510Z,54.43
2023-03-29T15:57:07.386Z,54.36
2023-03-29T15:59:35.047Z,54.48
2023-03-29T16:02:01.815Z,54.47
2023-03-29T16:04:30.725Z,54.64
2023-03-29T16:06:57.930Z,54.53
2023-03-29T16:09:27.569Z,54.55
2023-03-29T16:11:54.017Z,54.27
2023-03-29T16:14:25.540Z,54.58
2023-03-29T16:16:53.790Z,54.75
2023-03-29T16:19:20.446Z,54.73
2023-03-29T16:21:48.338Z,54.88
2023-03-29T16:27:01.730Z,55.20
2023-03-29T16:29:29.721Z,55.21
2023-03-29T16:31:56.268Z,55.41
2023-03-29T16:34:23.561Z,55.49
2023-03-29T16:36:51.414Z,55.26
2023-03-29T16:39:18.437Z,55.50
2023-03-29T16:44:29.089Z,55.74
2023-03-29T16:46:58.151Z,55.90
2023-03-29T16:49:24.763Z,55.64
2023-03-29T16:51:51.445Z,55.56
2023-03-29T16:54:19.092Z,55.86
2023-03-29T16:56:46.251Z,55.92
2023-03-29T16:59:12.814Z,55.68
2023-03-29T17:01:40.823Z,55.97
2023-03-29T17:04:09.176Z,55.43
2023-03-29T17:06:36.739Z,55.84
2023-03-29T17:09:05.240Z,55.88
2023-03-29T17:11:32.291Z,55.88
2023-03-29T17:13:59.377Z,56.06
2023-03-29T17:16:32.384Z,55.93
2023-03-29T17:19:09.831Z,55.97
2023-03-29T17:21:38.107Z,55.95
2023-03-29T17:24:05.082Z,56.14
2023-03-29T17:26:31.662Z,56.10
2023-03-29T17:28:58.238Z,56.03
2023-03-29T17:31:24.993Z,56.07
2023-03-29T17:33:52.310Z,56.15
2023-03-29T17:36:23.749Z,56.15
2023-03-29T17:38:52.219Z,56.09
2023-03-29T17:41:19.294Z,56.07
2023-03-29T17:43:46.746Z,56.07
2023-03-29T17:46:14.727Z,56.29
2023-03-29T17:48:41.318Z,56.15
2023-03-29T17:51:08.293Z,56.10
2023-03-29T17:53:35.082Z,56.10
2023-03-29T17:56:01.940Z,56.07
2023-03-29T17:58:29.518Z,56.17
2023-03-29T18:00:57.014Z,56.22
2023-03-29T18:03:23.762Z,56.30
2023-03-29T18:05:50.665Z,56.35
2023-03-29T18:08:17.363Z,56.18
2023-03-29T18:10:44.209Z,56.36
2023-03-29T18:13:14.070Z,56.25
2023-03-29T18:15:40.850Z,56.39
2023-03-29T18:18:07.917Z,56.40
2023-03-29T18:20:34.673Z,56.35
2023-03-29T18:23:02.051Z,56.32
2023-03-29T18:25:29.563Z,56.40
2023-03-29T18:27:56.154Z,56.49
2023-03-29T18:30:23.564Z,56.50
2023-03-29T18:32:50.331Z,56.58
2023-03-29T18:35:17.165Z,56.50
2023-03-29T18:37:43.874Z,56.46
2023-03-29T18:40:12.430Z,56.59
2023-03-29T18:42:39.123Z,56.51
2023-03-29T18:45:09.897Z,56.70
2023-03-29T18:47:37.163Z,56.54
2023-03-29T18:50:04.827Z,56.75
2023-03-29T18:52:33.281Z,56.84
2023-03-29T18:54:59.984Z,56.75
2023-03-29T18:57:27.460Z,56.92
2023-03-29T18:59:54.029Z,56.92
2023-03-29T19:02:20.913Z,56.85
2023-03-29T19:04:47.802Z,56.85
2023-03-29T19:07:14.669Z,56.95
2023-03-29T19:09:41.853Z,56.87
2023-03-29T19:12:08.837Z,56.90
2023-03-29T19:14:36.309Z,57.06
2023-03-29T19:17:03.017Z,57.03
2023-03-29T19:19:29.601Z,56.98
2023-03-29T19:21:58.386Z,56.99
2023-03-29T19:24:27.051Z,57.15
2023-03-29T19:26:54.227Z,56.99
2023-03-29T19:29:21.032Z,57.14
2023-03-29T19:31:47.744Z,57.33
2023-03-29T19:34:15.824Z,57.11
2023-03-29T19:36:42.414Z,57.27
2023-03-29T19:39:09.742Z,57.29
2023-03-29T19:41:36.355Z,57.28
2023-03-29T19:44:03.610Z,57.46
2023-03-29T19:46:30.462Z,57.33
2023-03-29T19:48:59.562Z,57.41
2023-03-29T19:51:27.609Z,57.31
2023-03-29T19:53:55.468Z,57.46
2023-03-29T19:56:24.419Z,57.70
2023-03-29T19:58:52.564Z,57.44
2023-03-29T20:01:22.264Z,57.11
2023-03-29T20:03:49.283Z,57.61
2023-03-29T20:06:17.204Z,57.48
2023-03-29T20:08:44.951Z,57.77
2023-03-29T20:11:12.581Z,57.77
2023-03-29T20:13:41.851Z,57.70
2023-03-29T20:16:14.881Z,57.68
2023-03-29T20:18:44.937Z,57.75
2023-03-29T20:21:14.482Z,57.85
2023-03-29T20:23:41.333Z,57.86
2023-03-29T20:26:10.162Z,57.75
2023-03-29T20:28:37.765Z,57.92
2023-03-29T20:31:06.911Z,57.97
2023-03-29T20:33:33.719Z,57.82
2023-03-29T20:36:00.244Z,57.99
2023-03-29T20:38:26.834Z,57.74
2023-03-29T20:40:55.800Z,57.84
2023-03-29T20:43:22.888Z,57.88
2023-03-29T20:45:53.951Z,58.08
2023-03-29T20:48:23.633Z,58.11
2023-03-29T20:50:51.717Z,57.94
2023-03-29T20:53:20.339Z,58.13
2023-03-29T20:55:47.879Z,58.01
2023-03-29T20:58:15.783Z,58.03
2023-03-29T21:00:43.730Z,58.27
2023-03-29T21:03:11.348Z,58.11
2023-03-29T21:05:38.955Z,58.06
2023-03-29T21:08:06.178Z,58.07
2023-03-29T21:10:33.742Z,58.13
2023-03-29T21:13:00.771Z,58.02
2023-03-29T21:15:31.064Z,58.04
2023-03-29T21:17:58.332Z,58.30
2023-03-29T21:20:25.187Z,58.26
2023-03-29T21:22:51.928Z,58.31
2023-03-29T21:25:19.075Z,58.54
2023-03-29T21:27:45.687Z,58.47
2023-03-29T21:30:12.566Z,58.44
2023-03-29T21:32:40.670Z,58.43
2023-03-29T21:35:08.373Z,58.49
2023-03-29T21:37:35.004Z,58.43
2023-03-29T21:40:06.653Z,58.53
2023-03-29T21:42:34.369Z,58.61
2023-03-29T21:45:01.562Z,58.46
2023-03-29T21:47:28.752Z,58.75
2023-03-29T21:49:55.386Z,58.76
2023-03-29T21:52:22.509Z,58.55
2023-03-29T21:54:49.050Z,58.71
2023-03-29T21:57:15.755Z,58.62
2023-03-29T21:59:42.761Z,58.73
2023-03-29T22:02:09.368Z,58.66
2023-03-29T22:04:37.361Z,58.65
2023-03-29T22:07:05.926Z,58.87
2023-03-29T22:09:32.883Z,58.29
2023-03-29T22:11:59.814Z,58.61
2023-03-29T22:14:28.582Z,58.82
2023-03-29T22:16:55.356Z,58.84
2023-03-29T22:19:22.181Z,58.94
2023-03-29T22:21:48.999Z,58.56
2023-03-29T22:24:16.489Z,58.82
2023-03-29T22:26:45.151Z,58.95
2023-03-29T22:29:12.058Z,58.98
2023-03-29T22:31:39.533Z,58.91
2023-03-29T22:34:06.919Z,58.86
2023-03-29T22:36:33.967Z,59.02
2023-03-29T22:39:00.713Z,58.78
2023-03-29T22:41:28.226Z,58.82
2023-03-29T22:43:57.105Z,58.87
2023-03-29T22:46:24.646Z,58.77
2023-03-29T22:48:52.598Z,58.82
2023-03-29T22:51:20.144Z,58.92
2023-03-29T22:53:47.176Z,58.98
2023-03-29T22:56:17.639Z,58.83
2023-03-29T22:58:44.418Z,58.75
2023-03-29T23:01:12.064Z,58.71
2023-03-29T23:03:38.734Z,58.67
2023-03-29T23:06:05.948Z,58.71
2023-03-29T23:08:33.802Z,58.70
2023-03-29T23:11:01.043Z,58.53
2023-03-29T23:13:29.425Z,58.75
2023-03-29T23:15:59.209Z,58.71
2023-03-29T23:18:28.439Z,58.63
2023-03-29T23:20:57.340Z,58.63
2023-03-29T23:23:25.575Z,58.51
2023-03-29T23:25:53.066Z,58.21
2023-03-29T23:28:23.459Z,58.48
2023-03-29T23:31:13.597Z,58.59
2023-03-29T23:33:43.009Z,58.36
2023-03-29T23:36:15.184Z,58.22
2023-03-29T23:38:44.020Z,58.25
2023-03-29T23:41:13.202Z,58.15
2023-03-29T23:43:42.441Z,58.14
2023-03-29T23:46:11.023Z,58.10
2023-03-29T23:48:38.678Z,58.05
2023-03-29T23:51:08.237Z,58.16
2023-03-29T23:53:34.681Z,58.04
2023-03-29T23:56:03.198Z,58.03
2023-03-29T23:58:32.741Z,57.98
